Time;durP1;ratioP1;P1;durP2;ratioP2;P2;SDS_P1;SDS_P2;PMS_P1;PMS_P2;Temp;Humidity;BMP_temperature;BMP_pressure;BME280_temperature;BME280_humidity;BME280_pressure;Samples;Min_cycle;Max_cycle;Signal;HPM_P1;HPM_P2
2024/03/06 00:00:55;;;;;;;33.83;18.77;;;;;;;;;;4994981;28;20065;-77
2024/03/06 00:03:20;;;;;;;34.80;19.88;;;;;;;;;;4996130;28;20033;-77
2024/03/06 00:05:47;;;;;;;32.78;19.98;;;;;;;;;;4993760;28;20030;-77
2024/03/06 00:08:12;;;;;;;31.92;19.35;;;;;;;;;;4994083;28;20034;-77
2024/03/06 00:10:37;;;;;;;31.38;18.65;;;;;;;;;;4997653;28;20450;-77
2024/03/06 00:13:02;;;;;;;33.72;19.83;;;;;;;;;;4994320;28;21810;-76
2024/03/06 00:15:27;;;;;;;33.90;19.77;;;;;;;;;;4993550;28;20026;-76
2024/03/06 00:17:53;;;;;;;29.30;17.23;;;;;;;;;;4993627;28;20065;-77
2024/03/06 00:20:18;;;;;;;29.65;18.40;;;;;;;;;;4994460;28;20101;-76
2024/03/06 00:22:43;;;;;;;30.05;16.45;;;;;;;;;;4993208;28;20034;-76
2024/03/06 00:25:09;;;;;;;34.03;18.33;;;;;;;;;;4993302;28;20120;-77
2024/03/06 00:27:34;;;;;;;27.48;17.05;;;;;;;;;;4993718;28;20096;-76
2024/03/06 00:29:59;;;;;;;27.90;16.77;;;;;;;;;;4995234;28;20117;-76
2024/03/06 00:32:24;;;;;;;27.42;17.00;;;;;;;;;;4992245;28;20037;-75
2024/03/06 00:34:50;;;;;;;32.75;17.70;;;;;;;;;;4993119;28;20172;-76
2024/03/06 00:37:15;;;;;;;31.38;18.35;;;;;;;;;;4993517;28;20034;-77
2024/03/06 00:39:40;;;;;;;32.55;19.13;;;;;;;;;;4994903;28;20439;-76
2024/03/06 00:42:05;;;;;;;29.02;16.25;;;;;;;;;;4995102;28;20038;-76
2024/03/06 00:44:31;;;;;;;31.30;16.98;;;;;;;;;;4993113;28;20030;-76
2024/03/06 00:46:56;;;;;;;29.10;18.17;;;;;;;;;;4993180;28;20042;-76
2024/03/06 00:49:21;;;;;;;28.67;18.13;;;;;;;;;;4993179;28;20030;-77
2024/03/06 00:51:46;;;;;;;40.10;23.10;;;;;;;;;;4996291;28;20034;-76
2024/03/06 00:54:11;;;;;;;30.85;17.73;;;;;;;;;;4992791;28;20035;-76
2024/03/06 00:56:37;;;;;;;29.95;18.60;;;;;;;;;;4993129;28;20430;-76
2024/03/06 00:59:03;;;;;;;29.73;17.05;;;;;;;;;;4990393;28;20062;-77
2024/03/06 01:01:28;;;;;;;29.45;16.17;;;;;;;;;;4993568;28;20058;-76
2024/03/06 01:03:53;;;;;;;31.70;18.55;;;;;;;;;;4992597;28;20064;-76
2024/03/06 01:06:18;;;;;;;30.45;17.08;;;;;;;;;;4993073;28;20026;-76
2024/03/06 01:08:43;;;;;;;33.95;18.38;;;;;;;;;;4992825;28;20026;-76
2024/03/06 01:11:10;;;;;;;29.35;17.17;;;;;;;;;;4995555;28;20029;-76
2024/03/06 01:13:35;;;;;;;26.60;16.15;;;;;;;;;;4992772;28;20061;-76
2024/03/06 01:16:00;;;;;;;30.70;16.23;;;;;;;;;;4991268;28;20484;-76
2024/03/06 01:18:25;;;;;;;30.15;18.77;;;;;;;;;;4992627;28;20044;-77
2024/03/06 01:20:51;;;;;;;29.67;16.05;;;;;;;;;;4995375;28;20057;-76
2024/03/06 01:23:16;;;;;;;29.75;17.55;;;;;;;;;;4992146;28;20490;-77
2024/03/06 01:25:42;;;;;;;34.88;19.77;;;;;;;;;;4991177;28;20030;-76
2024/03/06 01:28:07;;;;;;;32.88;18.98;;;;;;;;;;4992346;28;20054;-76
2024/03/06 01:30:32;;;;;;;28.10;16.67;;;;;;;;;;4993922;28;20045;-76
2024/03/06 01:32:57;;;;;;;31.42;18.67;;;;;;;;;;4995301;28;20057;-76
2024/03/06 01:35:23;;;;;;;32.10;19.13;;;;;;;;;;4992240;28;20517;-76
2024/03/06 01:37:48;;;;;;;32.88;18.38;;;;;;;;;;4992104;28;20042;-77
2024/03/06 01:40:14;;;;;;;29.85;17.38;;;;;;;;;;4992947;28;20547;-76
2024/03/06 01:42:39;;;;;;;30.23;16.92;;;;;;;;;;4992133;28;20023;-77
2024/03/06 01:45:04;;;;;;;29.33;16.85;;;;;;;;;;4993204;28;21664;-76
2024/03/06 01:47:30;;;;;;;32.75;18.73;;;;;;;;;;4992122;28;20483;-75
2024/03/06 01:49:55;;;;;;;32.78;17.98;;;;;;;;;;4993056;28;20045;-76
2024/03/06 01:52:21;;;;;;;32.63;18.58;;;;;;;;;;4994980;28;20403;-76
2024/03/06 01:54:47;;;;;;;29.80;18.05;;;;;;;;;;4995067;28;20093;-76
2024/03/06 01:57:13;;;;;;;28.58;17.58;;;;;;;;;;4991942;28;20465;-77
2024/03/06 01:59:38;;;;;;;28.40;17.52;;;;;;;;;;4991980;28;20109;-76
2024/03/06 02:02:05;;;;;;;27.27;15.88;;;;;;;;;;4993120;28;20066;-76
2024/03/06 02:04:31;;;;;;;28.25;17.83;;;;;;;;;;4991695;28;20073;-76
2024/03/06 02:06:56;;;;;;;31.33;16.13;;;;;;;;;;4991594;28;20104;-75
2024/03/06 02:09:23;;;;;;;35.15;18.85;;;;;;;;;;4991845;28;20483;-76
2024/03/06 02:11:50;;;;;;;32.45;18.05;;;;;;;;;;4992671;28;20136;-77
2024/03/06 02:14:15;;;;;;;34.95;19.63;;;;;;;;;;4991417;28;20038;-76
2024/03/06 02:16:40;;;;;;;34.22;18.58;;;;;;;;;;4991573;28;20076;-76
2024/03/06 02:19:05;;;;;;;30.52;18.65;;;;;;;;;;4991483;28;20042;-76
2024/03/06 02:21:30;;;;;;;32.28;18.52;;;;;;;;;;4992033;28;20022;-76
2024/03/06 02:23:56;;;;;;;29.30;16.67;;;;;;;;;;4990919;28;20039;-76
2024/03/06 02:26:21;;;;;;;33.35;20.67;;;;;;;;;;4991012;28;20105;-76
2024/03/06 02:28:54;;;;;;;33.28;18.15;;;;;;;;;;4991355;28;20033;-76
2024/03/06 02:31:19;;;;;;;30.70;18.70;;;;;;;;;;4999195;28;20030;-77
2024/03/06 02:33:47;;;;;;;32.22;18.55;;;;;;;;;;4991102;28;20028;-77
2024/03/06 02:36:12;;;;;;;35.03;19.52;;;;;;;;;;4985788;28;20069;-76
2024/03/06 02:38:37;;;;;;;29.85;18.23;;;;;;;;;;4991330;28;20060;-76
2024/03/06 02:41:03;;;;;;;37.35;19.02;;;;;;;;;;4991840;28;20118;-76
2024/03/06 02:43:28;;;;;;;32.95;19.50;;;;;;;;;;4991015;28;20092;-76
2024/03/06 02:45:53;;;;;;;41.97;21.10;;;;;;;;;;4990781;28;20042;-76
2024/03/06 02:48:18;;;;;;;33.85;19.35;;;;;;;;;;4991216;28;20033;-76
2024/03/06 02:50:43;;;;;;;39.05;19.80;;;;;;;;;;4991495;28;20108;-76
2024/03/06 02:53:09;;;;;;;30.92;18.17;;;;;;;;;;4990437;28;20398;-77
2024/03/06 02:55:34;;;;;;;34.22;20.35;;;;;;;;;;4988235;28;20081;-76
2024/03/06 02:58:03;;;;;;;36.13;19.13;;;;;;;;;;4989363;28;20458;-76
2024/03/06 03:00:28;;;;;;;31.55;19.05;;;;;;;;;;4991191;28;20033;-76
2024/03/06 03:02:53;;;;;;;31.88;18.52;;;;;;;;;;4990262;28;20034;-76
2024/03/06 03:05:18;;;;;;;32.28;17.83;;;;;;;;;;4990699;28;20034;-76
2024/03/06 03:07:44;;;;;;;32.75;17.23;;;;;;;;;;4990812;28;20152;-76
2024/03/06 03:10:10;;;;;;;33.08;17.75;;;;;;;;;;4990711;28;20032;-76
2024/03/06 03:12:35;;;;;;;31.20;16.55;;;;;;;;;;4991482;28;20038;-76
2024/03/06 03:15:01;;;;;;;32.78;17.20;;;;;;;;;;4990350;28;20061;-76
2024/03/06 03:17:26;;;;;;;35.72;18.70;;;;;;;;;;4990716;28;20042;-76
2024/03/06 03:19:52;;;;;;;30.05;17.02;;;;;;;;;;4990528;28;20031;-76
2024/03/06 03:22:17;;;;;;;31.70;18.63;;;;;;;;;;4992207;28;20030;-77
2024/03/06 03:24:43;;;;;;;38.58;19.90;;;;;;;;;;4990459;28;20033;-76
2024/03/06 03:27:08;;;;;;;37.05;18.92;;;;;;;;;;4990575;28;20038;-76
2024/03/06 03:29:33;;;;;;;33.17;16.75;;;;;;;;;;4990707;28;20049;-76
2024/03/06 03:31:58;;;;;;;37.08;18.88;;;;;;;;;;4992916;28;20399;-75
2024/03/06 03:34:24;;;;;;;35.47;18.77;;;;;;;;;;4990305;28;20037;-77
2024/03/06 03:36:49;;;;;;;33.95;17.88;;;;;;;;;;4990893;28;20034;-76
2024/03/06 03:39:17;;;;;;;30.55;18.88;;;;;;;;;;4997836;28;20109;-77
2024/03/06 03:41:46;;;;;;;33.38;18.10;;;;;;;;;;4995711;28;20022;-76
2024/03/06 03:44:15;;;;;;;29.25;17.45;;;;;;;;;;4998010;28;20030;-77
2024/03/06 03:46:40;;;;;;;35.05;20.08;;;;;;;;;;4990647;28;20123;-76
2024/03/06 03:49:05;;;;;;;33.90;19.08;;;;;;;;;;4994151;28;20499;-75
2024/03/06 03:51:31;;;;;;;31.83;19.30;;;;;;;;;;4996521;28;20029;-75
2024/03/06 03:53:56;;;;;;;40.05;17.83;;;;;;;;;;4994894;28;20403;-76
2024/03/06 03:56:21;;;;;;;31.30;18.17;;;;;;;;;;4994179;28;20034;-76
2024/03/06 03:58:47;;;;;;;32.40;18.10;;;;;;;;;;4994182;28;20137;-76
2024/03/06 04:01:12;;;;;;;39.08;18.42;;;;;;;;;;4998113;28;20161;-76
2024/03/06 04:03:37;;;;;;;32.28;18.58;;;;;;;;;;4993976;28;20065;-76
2024/03/06 04:06:03;;;;;;;32.50;18.35;;;;;;;;;;4993663;28;20398;-76
2024/03/06 04:08:29;;;;;;;31.80;18.75;;;;;;;;;;4994058;28;20036;-76
2024/03/06 04:10:54;;;;;;;33.45;19.80;;;;;;;;;;4996177;28;20030;-76
2024/03/06 04:13:20;;;;;;;36.75;20.10;;;;;;;;;;4996456;28;20049;-76
2024/03/06 04:15:45;;;;;;;36.97;19.42;;;;;;;;;;4993754;28;20030;-76
2024/03/06 04:18:11;;;;;;;36.35;19.88;;;;;;;;;;4993403;28;20507;-76
2024/03/06 04:20:36;;;;;;;38.15;21.13;;;;;;;;;;4994222;28;20042;-76
2024/03/06 04:23:02;;;;;;;37.63;21.17;;;;;;;;;;4993266;28;20080;-76
2024/03/06 04:25:27;;;;;;;36.60;21.38;;;;;;;;;;4994054;28;20034;-78
2024/03/06 04:27:52;;;;;;;34.55;19.73;;;;;;;;;;4993516;28;20042;-78
2024/03/06 04:30:17;;;;;;;31.98;18.20;;;;;;;;;;4995209;28;20036;-78
2024/03/06 04:32:42;;;;;;;37.28;18.55;;;;;;;;;;4992949;28;20085;-78
2024/03/06 04:35:09;;;;;;;29.67;17.92;;;;;;;;;;4992994;28;20044;-78
2024/03/06 04:37:35;;;;;;;31.58;17.38;;;;;;;;;;4993407;28;20038;-78
2024/03/06 04:40:00;;;;;;;38.28;20.77;;;;;;;;;;4985885;28;20406;-77
2024/03/06 04:42:25;;;;;;;31.60;18.48;;;;;;;;;;4996904;28;20174;-78
2024/03/06 04:44:50;;;;;;;34.40;20.33;;;;;;;;;;4993007;28;20047;-78
2024/03/06 04:47:16;;;;;;;31.92;18.02;;;;;;;;;;4989780;28;20034;-77
2024/03/06 04:49:42;;;;;;;33.10;19.23;;;;;;;;;;4992739;28;20046;-78
2024/03/06 04:52:09;;;;;;;31.73;19.45;;;;;;;;;;4999193;28;20526;-78
2024/03/06 04:54:34;;;;;;;35.35;18.48;;;;;;;;;;4993087;28;20061;-78
2024/03/06 04:56:59;;;;;;;29.63;18.17;;;;;;;;;;4990089;28;20034;-78
2024/03/06 04:59:26;;;;;;;32.63;17.25;;;;;;;;;;4992724;28;20040;-78
2024/03/06 05:01:51;;;;;;;35.67;20.95;;;;;;;;;;4993049;28;20030;-78
2024/03/06 05:04:16;;;;;;;33.58;19.73;;;;;;;;;;4992816;28;20041;-78
2024/03/06 05:06:41;;;;;;;34.78;17.45;;;;;;;;;;4993062;28;20030;-78
2024/03/06 05:09:07;;;;;;;29.88;17.00;;;;;;;;;;4992858;28;20030;-79
2024/03/06 05:11:32;;;;;;;29.40;17.92;;;;;;;;;;4993957;28;20042;-78
2024/03/06 05:13:59;;;;;;;35.65;18.27;;;;;;;;;;4990910;28;20538;-76
2024/03/06 05:16:24;;;;;;;31.60;17.55;;;;;;;;;;4992697;28;20026;-77
2024/03/06 05:18:49;;;;;;;43.22;22.35;;;;;;;;;;4992791;28;20538;-78
2024/03/06 05:21:15;;;;;;;37.97;18.55;;;;;;;;;;4996051;28;20033;-78
2024/03/06 05:23:40;;;;;;;30.35;18.20;;;;;;;;;;4992126;28;20113;-77
2024/03/06 05:26:05;;;;;;;35.08;18.33;;;;;;;;;;4991601;28;20164;-78
2024/03/06 05:28:30;;;;;;;37.22;19.85;;;;;;;;;;4992337;28;20518;-77
2024/03/06 05:30:56;;;;;;;37.17;19.30;;;;;;;;;;4995731;28;20542;-77
2024/03/06 05:33:21;;;;;;;32.90;16.50;;;;;;;;;;4994813;28;20030;-77
2024/03/06 05:35:47;;;;;;;37.13;18.40;;;;;;;;;;4992152;28;20043;-78
2024/03/06 05:38:12;;;;;;;38.50;20.00;;;;;;;;;;4996416;28;20161;-77
2024/03/06 05:40:40;;;;;;;33.60;18.10;;;;;;;;;;4992695;28;20248;-78
2024/03/06 05:43:05;;;;;;;35.33;19.23;;;;;;;;;;4993964;28;20031;-77
2024/03/06 05:45:30;;;;;;;42.83;20.48;;;;;;;;;;4992066;28;20030;-77
2024/03/06 05:47:55;;;;;;;35.20;19.33;;;;;;;;;;4992048;28;20040;-78
2024/03/06 05:50:21;;;;;;;37.45;20.13;;;;;;;;;;4995231;28;20415;-78
2024/03/06 05:52:46;;;;;;;37.67;20.48;;;;;;;;;;4994030;28;20414;-77
2024/03/06 05:55:11;;;;;;;39.75;20.77;;;;;;;;;;4991429;28;20053;-77
2024/03/06 05:57:36;;;;;;;35.72;20.02;;;;;;;;;;4990662;28;20026;-78
2024/03/06 06:00:02;;;;;;;38.42;21.17;;;;;;;;;;4990632;28;20038;-78
2024/03/06 06:02:36;;;;;;;32.40;18.40;;;;;;;;;;4991863;28;20038;-78
2024/03/06 06:05:02;;;;;;;45.33;25.67;;;;;;;;;;4991024;28;20030;-77
2024/03/06 06:07:27;;;;;;;44.03;26.00;;;;;;;;;;4990156;28;20453;-78
2024/03/06 06:09:52;;;;;;;38.77;20.70;;;;;;;;;;4989642;28;20444;-77
2024/03/06 06:12:18;;;;;;;37.63;22.30;;;;;;;;;;4995749;28;20616;-78
2024/03/06 06:14:43;;;;;;;36.60;21.05;;;;;;;;;;4989810;28;20031;-77
2024/03/06 06:17:09;;;;;;;36.08;21.45;;;;;;;;;;4989546;28;20092;-77
2024/03/06 06:19:34;;;;;;;38.63;21.85;;;;;;;;;;4989943;28;20534;-78
2024/03/06 06:21:59;;;;;;;40.55;23.27;;;;;;;;;;4995179;28;20076;-78
2024/03/06 06:24:24;;;;;;;33.70;20.75;;;;;;;;;;4991348;28;20056;-77
2024/03/06 06:26:50;;;;;;;41.35;21.85;;;;;;;;;;4991431;28;20037;-77
2024/03/06 06:29:15;;;;;;;42.13;24.13;;;;;;;;;;4991313;28;20030;-77
2024/03/06 06:31:40;;;;;;;57.35;28.35;;;;;;;;;;4992919;28;20490;-77
2024/03/06 06:34:06;;;;;;;55.00;30.98;;;;;;;;;;4992689;28;20031;-77
2024/03/06 06:36:31;;;;;;;44.50;25.55;;;;;;;;;;4991273;28;20053;-77
2024/03/06 06:38:57;;;;;;;42.90;23.88;;;;;;;;;;4991432;28;20066;-78
2024/03/06 06:41:23;;;;;;;39.30;21.95;;;;;;;;;;4994314;28;20064;-78
2024/03/06 06:43:51;;;;;;;37.92;20.92;;;;;;;;;;4991272;28;20022;-77
2024/03/06 06:46:18;;;;;;;38.03;22.02;;;;;;;;;;4991188;28;20095;-79
2024/03/06 06:48:43;;;;;;;37.83;21.58;;;;;;;;;;4990657;28;20042;-77
2024/03/06 06:51:08;;;;;;;39.90;23.10;;;;;;;;;;4994129;28;20081;-77
2024/03/06 06:53:33;;;;;;;37.53;22.02;;;;;;;;;;4990495;28;20019;-79
2024/03/06 06:55:59;;;;;;;48.30;27.33;;;;;;;;;;4993163;28;20494;-78
2024/03/06 06:58:24;;;;;;;41.40;23.92;;;;;;;;;;4990839;28;20037;-78
2024/03/06 07:00:49;;;;;;;44.85;24.17;;;;;;;;;;4990458;28;20053;-78
2024/03/06 07:03:14;;;;;;;39.72;22.42;;;;;;;;;;4995030;28;20053;-78
2024/03/06 07:05:42;;;;;;;38.88;21.35;;;;;;;;;;4990861;28;20023;-79
2024/03/06 07:08:07;;;;;;;44.90;22.77;;;;;;;;;;4989823;28;20038;-78
2024/03/06 07:10:32;;;;;;;47.58;27.45;;;;;;;;;;4991904;28;20087;-78
2024/03/06 07:12:58;;;;;;;58.90;32.00;;;;;;;;;;4991068;28;20030;-77
2024/03/06 07:15:23;;;;;;;49.42;27.00;;;;;;;;;;4990598;28;20042;-77
2024/03/06 07:17:48;;;;;;;43.00;23.63;;;;;;;;;;4989886;28;20045;-77
2024/03/06 07:20:14;;;;;;;44.35;26.10;;;;;;;;;;4990471;28;20815;-78
2024/03/06 07:22:39;;;;;;;72.40;36.92;;;;;;;;;;4994528;28;20653;-77
2024/03/06 07:25:05;;;;;;;73.28;36.65;;;;;;;;;;4990064;28;20038;-77
2024/03/06 07:27:30;;;;;;;69.65;35.00;;;;;;;;;;4990750;28;20510;-77
2024/03/06 07:29:55;;;;;;;69.95;35.80;;;;;;;;;;4992707;28;20041;-78
2024/03/06 07:32:21;;;;;;;75.70;35.38;;;;;;;;;;4995560;28;20034;-78
2024/03/06 07:34:46;;;;;;;46.20;27.75;;;;;;;;;;4990367;28;20041;-77
2024/03/06 07:37:11;;;;;;;41.25;24.75;;;;;;;;;;4991863;28;20112;-78
2024/03/06 07:39:36;;;;;;;42.15;23.58;;;;;;;;;;4989004;28;20038;-77
2024/03/06 07:42:02;;;;;;;41.60;23.30;;;;;;;;;;4994187;28;20038;-77
2024/03/06 07:44:27;;;;;;;39.28;22.77;;;;;;;;;;4999909;28;20029;-78
2024/03/06 07:46:54;;;;;;;36.00;22.35;;;;;;;;;;4990312;28;20065;-78
2024/03/06 07:49:19;;;;;;;38.80;23.27;;;;;;;;;;4991878;28;20026;-77
2024/03/06 07:51:44;;;;;;;40.83;24.40;;;;;;;;;;4993337;28;20034;-78
2024/03/06 07:54:09;;;;;;;39.03;21.55;;;;;;;;;;4993714;28;20041;-78
2024/03/06 07:56:35;;;;;;;42.67;24.50;;;;;;;;;;4993515;28;20038;-78
2024/03/06 07:59:00;;;;;;;37.97;23.55;;;;;;;;;;4988439;28;20113;-78
2024/03/06 08:01:26;;;;;;;44.33;25.65;;;;;;;;;;4991204;28;20162;-78
2024/03/06 08:03:51;;;;;;;48.30;25.58;;;;;;;;;;4990907;28;20026;-76
2024/03/06 08:06:16;;;;;;;36.33;22.63;;;;;;;;;;4989870;28;20042;-78
2024/03/06 08:08:43;;;;;;;39.30;23.85;;;;;;;;;;4989913;28;20183;-78
2024/03/06 08:11:10;;;;;;;45.85;25.30;;;;;;;;;;4990545;28;20039;-78
2024/03/06 08:13:36;;;;;;;42.05;24.42;;;;;;;;;;4992852;28;20027;-78
2024/03/06 08:16:02;;;;;;;45.08;26.85;;;;;;;;;;4988723;28;20026;-78
2024/03/06 08:18:27;;;;;;;40.60;22.83;;;;;;;;;;4990252;28;20069;-78
2024/03/06 08:20:52;;;;;;;46.05;26.45;;;;;;;;;;4990679;28;20038;-78
2024/03/06 08:23:18;;;;;;;42.38;25.83;;;;;;;;;;4994908;28;20137;-77
2024/03/06 08:25:43;;;;;;;41.10;26.65;;;;;;;;;;4993471;28;20505;-78
2024/03/06 08:28:09;;;;;;;47.75;25.58;;;;;;;;;;4993560;28;20030;-78
2024/03/06 08:30:35;;;;;;;44.38;28.30;;;;;;;;;;4995018;28;20034;-78
2024/03/06 08:33:00;;;;;;;40.60;25.67;;;;;;;;;;4997147;28;20061;-78
2024/03/06 08:35:25;;;;;;;43.90;25.00;;;;;;;;;;4995299;28;20494;-77
2024/03/06 08:37:50;;;;;;;45.42;26.58;;;;;;;;;;4993518;28;20380;-78
2024/03/06 08:40:17;;;;;;;42.30;24.77;;;;;;;;;;4995029;28;20069;-77
2024/03/06 08:42:47;;;;;;;42.97;23.23;;;;;;;;;;4997457;28;20495;-77
2024/03/06 08:45:12;;;;;;;44.40;27.70;;;;;;;;;;4993040;28;20137;-78
2024/03/06 08:47:38;;;;;;;39.67;25.08;;;;;;;;;;4994700;28;20502;-78
2024/03/06 08:50:03;;;;;;;43.13;25.88;;;;;;;;;;4993131;28;20034;-77
2024/03/06 08:52:30;;;;;;;33.70;21.55;;;;;;;;;;4997756;28;20038;-78
2024/03/06 08:54:55;;;;;;;39.90;20.83;;;;;;;;;;4992758;28;20121;-77
2024/03/06 08:57:22;;;;;;;31.02;19.55;;;;;;;;;;4993151;28;20116;-78
2024/03/06 08:59:47;;;;;;;34.72;20.88;;;;;;;;;;4988814;28;20121;-78
2024/03/06 09:02:14;;;;;;;34.20;21.20;;;;;;;;;;4996470;28;20121;-77
2024/03/06 09:04:39;;;;;;;34.75;22.27;;;;;;;;;;4992840;28;20025;-78
2024/03/06 09:07:05;;;;;;;35.92;22.52;;;;;;;;;;4992766;28;20038;-78
2024/03/06 09:09:33;;;;;;;34.92;21.83;;;;;;;;;;4992799;28;20061;-78
2024/03/06 09:11:58;;;;;;;33.50;20.30;;;;;;;;;;4994574;28;20034;-77
2024/03/06 09:14:24;;;;;;;32.53;19.83;;;;;;;;;;4992662;28;20085;-77
2024/03/06 09:16:49;;;;;;;32.25;20.88;;;;;;;;;;4992859;28;20125;-77
2024/03/06 09:19:15;;;;;;;31.08;20.63;;;;;;;;;;4996267;28;20038;-78
2024/03/06 09:21:40;;;;;;;35.53;21.13;;;;;;;;;;4991500;28;20116;-77
2024/03/06 09:24:05;;;;;;;33.05;20.77;;;;;;;;;;4992174;28;20084;-77
2024/03/06 09:26:30;;;;;;;31.80;20.35;;;;;;;;;;5004816;28;20157;-77
2024/03/06 09:28:56;;;;;;;30.77;20.00;;;;;;;;;;4992316;28;20046;-78
2024/03/06 09:31:21;;;;;;;29.85;19.88;;;;;;;;;;4995509;28;20049;-77
2024/03/06 09:33:46;;;;;;;27.02;17.75;;;;;;;;;;4994570;28;20450;-78
2024/03/06 09:36:13;;;;;;;30.02;18.20;;;;;;;;;;4993987;28;20030;-77
2024/03/06 09:38:40;;;;;;;25.52;16.40;;;;;;;;;;4992026;28;20402;-77
2024/03/06 09:41:06;;;;;;;28.98;18.27;;;;;;;;;;4992580;28;20458;-78
2024/03/06 09:43:32;;;;;;;27.58;16.83;;;;;;;;;;4994895;28;20041;-77
2024/03/06 09:45:57;;;;;;;26.27;15.80;;;;;;;;;;4992072;28;20465;-78
2024/03/06 09:48:22;;;;;;;28.58;17.75;;;;;;;;;;4992452;28;20034;-77
2024/03/06 09:50:50;;;;;;;24.55;16.10;;;;;;;;;;4995893;28;20042;-77
2024/03/06 09:53:16;;;;;;;27.70;16.58;;;;;;;;;;4992087;28;21111;-78
2024/03/06 09:55:42;;;;;;;24.80;15.70;;;;;;;;;;4996751;28;20026;-77
2024/03/06 09:58:08;;;;;;;25.17;15.73;;;;;;;;;;4996271;28;20042;-78
2024/03/06 10:00:34;;;;;;;24.70;15.70;;;;;;;;;;4992323;28;20434;-78
2024/03/06 10:03:01;;;;;;;24.67;15.98;;;;;;;;;;4995092;28;20471;-77
2024/03/06 10:05:27;;;;;;;26.45;16.10;;;;;;;;;;4991576;28;20080;-78
2024/03/06 10:07:52;;;;;;;26.88;17.50;;;;;;;;;;4992724;28;20046;-78
2024/03/06 10:10:18;;;;;;;26.55;15.77;;;;;;;;;;4992339;28;20045;-77
2024/03/06 10:12:50;;;;;;;21.77;14.07;;;;;;;;;;4998445;28;20495;-77
2024/03/06 10:15:15;;;;;;;24.67;15.50;;;;;;;;;;4991342;28;20034;-78
2024/03/06 10:17:41;;;;;;;25.05;15.63;;;;;;;;;;4991648;28;20045;-78
2024/03/06 10:20:20;;;;;;;26.23;17.50;;;;;;;;;;4990143;28;20042;-78
2024/03/06 10:22:47;;;;;;;27.08;16.45;;;;;;;;;;4989630;28;20030;-78
2024/03/06 10:25:12;;;;;;;24.33;15.85;;;;;;;;;;4991186;28;20022;-77
2024/03/06 10:27:37;;;;;;;27.98;17.85;;;;;;;;;;4991509;28;20023;-78
2024/03/06 10:30:03;;;;;;;25.50;15.30;;;;;;;;;;4991517;28;20506;-77
2024/03/06 10:32:30;;;;;;;21.83;14.57;;;;;;;;;;4993156;28;20036;-78
2024/03/06 10:34:55;;;;;;;23.02;16.10;;;;;;;;;;4991181;28;20447;-79
2024/03/06 10:37:21;;;;;;;25.90;15.20;;;;;;;;;;4991242;28;20038;-77
2024/03/06 10:39:47;;;;;;;19.60;13.32;;;;;;;;;;4991187;28;20045;-78
2024/03/06 10:42:13;;;;;;;20.83;13.98;;;;;;;;;;4994759;28;20038;-78
2024/03/06 10:44:43;;;;;;;22.10;14.55;;;;;;;;;;4990992;28;20081;-77
2024/03/06 10:47:09;;;;;;;23.10;14.43;;;;;;;;;;4990776;28;20520;-78
2024/03/06 10:49:35;;;;;;;24.52;16.30;;;;;;;;;;4991169;28;20034;-77
2024/03/06 10:52:01;;;;;;;25.35;16.77;;;;;;;;;;4992878;28;20080;-76
2024/03/06 10:54:28;;;;;;;21.25;14.85;;;;;;;;;;4990723;28;20062;-75
2024/03/06 10:56:54;;;;;;;23.73;16.05;;;;;;;;;;4991122;28;20097;-76
2024/03/06 10:59:20;;;;;;;25.02;16.67;;;;;;;;;;4985707;28;20035;-76
2024/03/06 11:01:46;;;;;;;22.80;14.40;;;;;;;;;;4991035;28;20058;-76
2024/03/06 11:04:12;;;;;;;23.58;15.18;;;;;;;;;;4991857;28;20029;-76
2024/03/06 11:06:38;;;;;;;21.63;15.00;;;;;;;;;;4990858;28;20022;-76
2024/03/06 11:09:03;;;;;;;20.25;14.43;;;;;;;;;;4990716;28;20093;-75
2024/03/06 11:11:29;;;;;;;20.77;14.38;;;;;;;;;;4991711;28;20026;-75
2024/03/06 11:14:03;;;;;;;20.38;14.15;;;;;;;;;;4991351;28;20034;-75
2024/03/06 11:16:29;;;;;;;21.77;14.10;;;;;;;;;;4989460;28;20022;-75
2024/03/06 11:19:05;;;;;;;20.85;12.73;;;;;;;;;;4990839;28;20559;-75
2024/03/06 11:21:31;;;;;;;21.65;13.50;;;;;;;;;;4988644;28;20022;-74
2024/03/06 11:24:11;;;;;;;19.00;12.15;;;;;;;;;;4992035;28;20042;-75
2024/03/06 11:26:36;;;;;;;18.55;12.35;;;;;;;;;;4989363;28;20514;-75
2024/03/06 11:29:02;;;;;;;17.50;11.45;;;;;;;;;;4989663;28;20026;-76
2024/03/06 11:31:27;;;;;;;20.52;12.82;;;;;;;;;;4993975;28;20506;-75
2024/03/06 11:33:55;;;;;;;21.48;13.02;;;;;;;;;;4991803;28;20018;-75
2024/03/06 11:36:22;;;;;;;22.25;12.40;;;;;;;;;;4990366;28;20068;-75
2024/03/06 11:38:56;;;;;;;18.60;11.85;;;;;;;;;;4989408;28;20045;-75
2024/03/06 11:41:25;;;;;;;25.92;12.10;;;;;;;;;;4991337;28;20034;-75
2024/03/06 11:43:52;;;;;;;18.35;12.02;;;;;;;;;;4991905;28;20042;-75
2024/03/06 11:46:18;;;;;;;22.92;11.95;;;;;;;;;;4989140;28;20120;-76
2024/03/06 11:48:43;;;;;;;15.63;10.95;;;;;;;;;;4990555;28;20511;-75
2024/03/06 11:51:08;;;;;;;16.40;11.25;;;;;;;;;;4991602;28;20026;-75
2024/03/06 11:53:35;;;;;;;15.90;10.82;;;;;;;;;;4990510;28;20031;-75
2024/03/06 11:56:00;;;;;;;17.23;12.65;;;;;;;;;;4990575;28;20038;-75
2024/03/06 11:58:25;;;;;;;17.83;12.10;;;;;;;;;;4992235;28;20022;-74
2024/03/06 12:00:51;;;;;;;17.45;10.38;;;;;;;;;;4999177;28;20503;-76
2024/03/06 12:03:17;;;;;;;20.40;11.23;;;;;;;;;;4994803;28;20042;-76
2024/03/06 12:05:44;;;;;;;17.25;11.18;;;;;;;;;;4993139;28;20037;-75
2024/03/06 12:08:09;;;;;;;15.57;11.13;;;;;;;;;;4995634;28;20053;-75
2024/03/06 12:10:38;;;;;;;19.40;13.27;;;;;;;;;;4996358;28;20483;-75
2024/03/06 12:13:03;;;;;;;19.60;12.35;;;;;;;;;;4996036;28;20447;-75
2024/03/06 12:15:29;;;;;;;24.52;15.88;;;;;;;;;;4993990;28;20081;-75
2024/03/06 12:17:54;;;;;;;33.83;21.27;;;;;;;;;;4993853;28;20042;-75
2024/03/06 12:20:19;;;;;;;31.58;20.48;;;;;;;;;;4993551;28;20110;-75
2024/03/06 12:22:45;;;;;;;34.33;21.98;;;;;;;;;;4994705;28;20030;-75
2024/03/06 12:25:10;;;;;;;37.70;24.30;;;;;;;;;;4993200;28;20080;-75
2024/03/06 12:27:35;;;;;;;21.45;13.80;;;;;;;;;;4993884;28;20041;-75
2024/03/06 12:30:01;;;;;;;20.42;12.40;;;;;;;;;;4993442;28;20038;-75
2024/03/06 12:32:29;;;;;;;18.15;12.57;;;;;;;;;;4995232;28;20030;-75
2024/03/06 12:34:59;;;;;;;21.35;13.45;;;;;;;;;;4993305;28;20380;-75
2024/03/06 12:37:30;;;;;;;23.98;14.38;;;;;;;;;;4990849;28;20042;-75
2024/03/06 12:39:55;;;;;;;18.52;12.05;;;;;;;;;;4993464;28;20034;-75
2024/03/06 12:42:20;;;;;;;17.45;11.82;;;;;;;;;;4994667;28;20408;-75
2024/03/06 12:44:45;;;;;;;18.02;12.57;;;;;;;;;;4993326;28;20504;-76
2024/03/06 12:47:11;;;;;;;18.98;12.73;;;;;;;;;;4993278;28;20046;-75
2024/03/06 12:49:36;;;;;;;19.00;10.88;;;;;;;;;;4992895;28;20061;-76
2024/03/06 12:52:01;;;;;;;19.00;12.00;;;;;;;;;;4993262;28;20038;-76
2024/03/06 12:54:27;;;;;;;18.48;11.77;;;;;;;;;;4990356;28;20038;-76
2024/03/06 12:56:52;;;;;;;16.17;9.95;;;;;;;;;;4993252;28;20521;-75
2024/03/06 12:59:17;;;;;;;13.88;10.02;;;;;;;;;;4989467;28;20109;-75
2024/03/06 13:01:42;;;;;;;15.75;9.38;;;;;;;;;;4994290;28;20040;-76
2024/03/06 13:04:08;;;;;;;13.98;8.60;;;;;;;;;;4999233;28;20038;-76
2024/03/06 13:06:33;;;;;;;16.35;10.38;;;;;;;;;;4993091;28;20466;-76
2024/03/06 13:08:59;;;;;;;14.18;9.05;;;;;;;;;;4992596;28;20038;-74
2024/03/06 13:11:24;;;;;;;13.07;9.13;;;;;;;;;;4992016;28;20038;-75
2024/03/06 13:13:49;;;;;;;12.90;8.38;;;;;;;;;;4992785;28;20499;-76
2024/03/06 13:16:14;;;;;;;17.98;11.25;;;;;;;;;;4996205;28;20670;-76
2024/03/06 13:18:40;;;;;;;15.43;9.80;;;;;;;;;;4992688;28;20072;-75
2024/03/06 13:21:05;;;;;;;22.38;13.35;;;;;;;;;;4992783;28;20026;-75
2024/03/06 13:23:31;;;;;;;25.40;15.05;;;;;;;;;;4992124;28;20030;-76
2024/03/06 13:25:56;;;;;;;22.17;14.68;;;;;;;;;;4992366;28;20030;-75
2024/03/06 13:28:21;;;;;;;16.70;10.40;;;;;;;;;;4992894;28;20052;-75
2024/03/06 13:30:46;;;;;;;16.73;12.18;;;;;;;;;;4996050;28;20041;-77
2024/03/06 13:33:12;;;;;;;16.45;11.13;;;;;;;;;;4993183;28;20038;-78
2024/03/06 13:35:37;;;;;;;16.95;11.52;;;;;;;;;;4992292;28;20038;-77
2024/03/06 13:38:03;;;;;;;15.88;10.77;;;;;;;;;;4992107;28;20041;-77
2024/03/06 13:40:28;;;;;;;20.25;13.57;;;;;;;;;;4992117;28;20438;-78
2024/03/06 13:42:53;;;;;;;10.43;7.55;;;;;;;;;;4995609;28;20050;-77
2024/03/06 13:45:19;;;;;;;15.88;10.68;;;;;;;;;;4991750;28;20033;-77
2024/03/06 13:47:44;;;;;;;15.48;10.93;;;;;;;;;;4992213;28;20471;-78
2024/03/06 13:50:11;;;;;;;19.98;14.98;;;;;;;;;;4989812;28;20030;-77
2024/03/06 13:52:36;;;;;;;11.82;8.15;;;;;;;;;;4992303;28;20041;-78
2024/03/06 13:55:04;;;;;;;11.70;8.20;;;;;;;;;;4991622;28;20031;-77
2024/03/06 13:57:29;;;;;;;9.98;6.18;;;;;;;;;;4992431;28;20042;-77
2024/03/06 13:59:54;;;;;;;11.75;8.10;;;;;;;;;;4991636;28;20035;-78
2024/03/06 14:02:19;;;;;;;12.10;7.60;;;;;;;;;;4992855;28;20041;-77
2024/03/06 14:04:45;;;;;;;11.85;7.60;;;;;;;;;;4993660;28;20037;-77
2024/03/06 14:17:34;;;;;;;11.02;7.65;;;;;;;;;;4984949;28;20030;-76
2024/03/06 14:19:59;;;;;;;10.18;7.20;;;;;;;;;;4990817;28;20590;-77